sensor_id;sensor_type;location;lat;lon;timestamp;P1;durP1;ratioP1;P2;durP2;ratioP2
80778;SDS011;70170;47.856;10.956;2023-06-26T00:01:13;10.55;;;7.72;;
80778;SDS011;70170;47.856;10.956;2023-06-26T00:03:39;14.30;;;8.27;;
80778;SDS011;70170;47.856;10.956;2023-06-26T00:06:04;11.63;;;7.97;;
80778;SDS011;70170;47.856;10.956;2023-06-26T00:08:29;10.57;;;7.53;;
80778;SDS011;70170;47.856;10.956;2023-06-26T00:10:55;11.60;;;7.15;;
80778;SDS011;70170;47.856;10.956;2023-06-26T00:13:21;14.40;;;8.68;;
80778;SDS011;70170;47.856;10.956;2023-06-26T00:15:47;10.93;;;7.90;;
80778;SDS011;70170;47.856;10.956;2023-06-26T00:18:12;11.40;;;8.52;;
80778;SDS011;70170;47.856;10.956;2023-06-26T00:20:38;15.88;;;7.82;;
80778;SDS011;70170;47.856;10.956;2023-06-26T00:23:03;10.98;;;7.75;;
80778;SDS011;70170;47.856;10.956;2023-06-26T00:25:35;9.02;;;7.10;;
80778;SDS011;70170;47.856;10.956;2023-06-26T00:28:00;11.43;;;7.93;;
80778;SDS011;70170;47.856;10.956;2023-06-26T00:30:26;12.30;;;7.63;;
80778;SDS011;70170;47.856;10.956;2023-06-26T00:32:51;11.00;;;8.13;;
80778;SDS011;70170;47.856;10.956;2023-06-26T00:35:17;13.90;;;8.00;;
80778;SDS011;70170;47.856;10.956;2023-06-26T00:37:42;13.35;;;7.47;;
80778;SDS011;70170;47.856;10.956;2023-06-26T00:40:07;11.15;;;7.40;;
80778;SDS011;70170;47.856;10.956;2023-06-26T00:42:34;11.38;;;6.47;;
80778;SDS011;70170;47.856;10.956;2023-06-26T00:44:59;14.60;;;7.47;;
80778;SDS011;70170;47.856;10.956;2023-06-26T00:47:24;11.95;;;7.78;;
80778;SDS011;70170;47.856;10.956;2023-06-26T00:49:50;11.65;;;8.15;;
80778;SDS011;70170;47.856;10.956;2023-06-26T00:52:16;10.80;;;7.18;;
80778;SDS011;70170;47.856;10.956;2023-06-26T00:54:42;14.50;;;8.15;;
80778;SDS011;70170;47.856;10.956;2023-06-26T00:57:07;11.25;;;7.78;;
80778;SDS011;70170;47.856;10.956;2023-06-26T00:59:33;12.80;;;7.65;;
80778;SDS011;70170;47.856;10.956;2023-06-26T01:01:59;11.95;;;7.90;;
80778;SDS011;70170;47.856;10.956;2023-06-26T01:04:24;11.32;;;7.55;;
80778;SDS011;70170;47.856;10.956;2023-06-26T01:06:52;11.88;;;7.82;;
80778;SDS011;70170;47.856;10.956;2023-06-26T01:09:19;11.70;;;7.82;;
80778;SDS011;70170;47.856;10.956;2023-06-26T01:11:45;12.10;;;7.60;;
80778;SDS011;70170;47.856;10.956;2023-06-26T01:14:11;11.45;;;7.00;;
80778;SDS011;70170;47.856;10.956;2023-06-26T01:16:37;10.88;;;7.15;;
80778;SDS011;70170;47.856;10.956;2023-06-26T01:19:04;11.40;;;7.45;;
80778;SDS011;70170;47.856;10.956;2023-06-26T01:21:34;10.50;;;7.18;;
80778;SDS011;70170;47.856;10.956;2023-06-26T01:24:07;11.95;;;6.50;;
80778;SDS011;70170;47.856;10.956;2023-06-26T01:26:45;14.60;;;7.30;;
80778;SDS011;70170;47.856;10.956;2023-06-26T01:29:12;11.80;;;8.07;;
80778;SDS011;70170;47.856;10.956;2023-06-26T01:31:40;11.27;;;7.50;;
80778;SDS011;70170;47.856;10.956;2023-06-26T01:34:06;10.05;;;7.32;;
80778;SDS011;70170;47.856;10.956;2023-06-26T01:36:32;11.50;;;6.55;;
80778;SDS011;70170;47.856;10.956;2023-06-26T01:38:57;14.05;;;7.13;;
80778;SDS011;70170;47.856;10.956;2023-06-26T01:41:23;9.80;;;7.00;;
80778;SDS011;70170;47.856;10.956;2023-06-26T01:43:57;11.98;;;6.95;;
80778;SDS011;70170;47.856;10.956;2023-06-26T01:46:30;9.52;;;6.95;;
80778;SDS011;70170;47.856;10.956;2023-06-26T01:51:42;13.93;;;6.78;;
80778;SDS011;70170;47.856;10.956;2023-06-26T01:54:23;10.43;;;7.38;;
80778;SDS011;70170;47.856;10.956;2023-06-26T01:56:52;11.65;;;7.07;;
80778;SDS011;70170;47.856;10.956;2023-06-26T01:59:19;9.23;;;7.13;;
80778;SDS011;70170;47.856;10.956;2023-06-26T02:01:46;10.52;;;7.40;;
80778;SDS011;70170;47.856;10.956;2023-06-26T02:04:12;11.52;;;7.40;;
80778;SDS011;70170;47.856;10.956;2023-06-26T02:06:37;11.57;;;7.47;;
80778;SDS011;70170;47.856;10.956;2023-06-26T02:09:03;10.70;;;7.05;;
80778;SDS011;70170;47.856;10.956;2023-06-26T02:11:28;12.93;;;7.35;;
80778;SDS011;70170;47.856;10.956;2023-06-26T02:13:54;11.10;;;7.30;;
80778;SDS011;70170;47.856;10.956;2023-06-26T02:16:19;12.20;;;7.65;;
80778;SDS011;70170;47.856;10.956;2023-06-26T02:18:44;10.93;;;7.45;;
80778;SDS011;70170;47.856;10.956;2023-06-26T02:21:10;11.75;;;7.07;;
80778;SDS011;70170;47.856;10.956;2023-06-26T02:23:36;11.00;;;7.40;;
80778;SDS011;70170;47.856;10.956;2023-06-26T02:26:02;11.30;;;7.50;;
80778;SDS011;70170;47.856;10.956;2023-06-26T02:28:28;10.40;;;7.45;;
80778;SDS011;70170;47.856;10.956;2023-06-26T02:30:53;10.38;;;7.40;;
80778;SDS011;70170;47.856;10.956;2023-06-26T02:33:18;13.55;;;7.18;;
80778;SDS011;70170;47.856;10.956;2023-06-26T02:35:44;11.02;;;7.90;;
80778;SDS011;70170;47.856;10.956;2023-06-26T02:38:09;10.85;;;7.47;;
80778;SDS011;70170;47.856;10.956;2023-06-26T02:40:34;9.82;;;7.35;;
80778;SDS011;70170;47.856;10.956;2023-06-26T02:43:00;12.38;;;7.75;;
80778;SDS011;70170;47.856;10.956;2023-06-26T02:45:25;10.13;;;7.43;;
80778;SDS011;70170;47.856;10.956;2023-06-26T02:47:50;14.88;;;7.70;;
80778;SDS011;70170;47.856;10.956;2023-06-26T02:50:15;13.20;;;7.15;;
80778;SDS011;70170;47.856;10.956;2023-06-26T02:52:41;12.18;;;7.30;;
80778;SDS011;70170;47.856;10.956;2023-06-26T02:55:06;9.35;;;7.05;;
80778;SDS011;70170;47.856;10.956;2023-06-26T02:57:32;11.70;;;7.50;;
80778;SDS011;70170;47.856;10.956;2023-06-26T02:59:57;9.88;;;6.90;;
80778;SDS011;70170;47.856;10.956;2023-06-26T03:02:22;10.23;;;7.28;;
80778;SDS011;70170;47.856;10.956;2023-06-26T03:04:47;10.23;;;6.95;;
80778;SDS011;70170;47.856;10.956;2023-06-26T03:07:15;9.98;;;6.65;;
80778;SDS011;70170;47.856;10.956;2023-06-26T03:09:40;13.18;;;6.75;;
80778;SDS011;70170;47.856;10.956;2023-06-26T03:12:06;10.10;;;6.90;;
80778;SDS011;70170;47.856;10.956;2023-06-26T03:14:32;8.90;;;6.45;;
80778;SDS011;70170;47.856;10.956;2023-06-26T03:16:57;15.98;;;6.40;;
80778;SDS011;70170;47.856;10.956;2023-06-26T03:19:24;9.60;;;6.47;;
80778;SDS011;70170;47.856;10.956;2023-06-26T03:21:49;8.85;;;6.15;;
80778;SDS011;70170;47.856;10.956;2023-06-26T03:24:15;8.50;;;6.72;;
80778;SDS011;70170;47.856;10.956;2023-06-26T03:26:40;15.40;;;6.50;;
80778;SDS011;70170;47.856;10.956;2023-06-26T03:29:05;9.85;;;5.93;;
80778;SDS011;70170;47.856;10.956;2023-06-26T03:31:31;10.77;;;6.47;;
80778;SDS011;70170;47.856;10.956;2023-06-26T03:33:56;8.90;;;6.65;;
80778;SDS011;70170;47.856;10.956;2023-06-26T03:36:21;11.32;;;6.38;;
80778;SDS011;70170;47.856;10.956;2023-06-26T03:38:47;8.73;;;6.25;;
80778;SDS011;70170;47.856;10.956;2023-06-26T03:41:12;10.00;;;6.63;;
80778;SDS011;70170;47.856;10.956;2023-06-26T03:43:37;9.88;;;6.35;;
80778;SDS011;70170;47.856;10.956;2023-06-26T03:46:03;8.07;;;6.50;;
80778;SDS011;70170;47.856;10.956;2023-06-26T03:48:28;7.93;;;6.18;;
80778;SDS011;70170;47.856;10.956;2023-06-26T03:50:53;9.13;;;6.03;;
80778;SDS011;70170;47.856;10.956;2023-06-26T03:53:19;10.90;;;7.03;;
80778;SDS011;70170;47.856;10.956;2023-06-26T03:55:44;8.73;;;6.20;;
80778;SDS011;70170;47.856;10.956;2023-06-26T03:58:09;13.32;;;6.95;;
80778;SDS011;70170;47.856;10.956;2023-06-26T04:00:35;9.50;;;6.43;;
80778;SDS011;70170;47.856;10.956;2023-06-26T04:03:00;8.90;;;6.20;;
80778;SDS011;70170;47.856;10.956;2023-06-26T04:05:25;9.57;;;6.32;;
80778;SDS011;70170;47.856;10.956;2023-06-26T04:07:51;17.73;;;6.75;;
80778;SDS011;70170;47.856;10.956;2023-06-26T04:10:17;10.57;;;6.35;;
80778;SDS011;70170;47.856;10.956;2023-06-26T04:12:43;8.65;;;6.25;;
80778;SDS011;70170;47.856;10.956;2023-06-26T04:15:08;10.50;;;6.78;;
80778;SDS011;70170;47.856;10.956;2023-06-26T04:17:34;9.40;;;6.47;;
80778;SDS011;70170;47.856;10.956;2023-06-26T04:19:59;7.65;;;5.68;;
80778;SDS011;70170;47.856;10.956;2023-06-26T04:22:24;7.00;;;5.95;;
80778;SDS011;70170;47.856;10.956;2023-06-26T04:24:50;9.40;;;6.65;;
80778;SDS011;70170;47.856;10.956;2023-06-26T04:27:16;8.80;;;5.65;;
80778;SDS011;70170;47.856;10.956;2023-06-26T04:29:42;9.23;;;5.60;;
80778;SDS011;70170;47.856;10.956;2023-06-26T04:32:07;8.95;;;5.72;;
80778;SDS011;70170;47.856;10.956;2023-06-26T04:34:33;10.07;;;6.13;;
80778;SDS011;70170;47.856;10.956;2023-06-26T04:36:59;9.82;;;5.60;;
80778;SDS011;70170;47.856;10.956;2023-06-26T04:39:24;8.73;;;5.50;;
80778;SDS011;70170;47.856;10.956;2023-06-26T04:41:49;7.53;;;5.30;;
80778;SDS011;70170;47.856;10.956;2023-06-26T04:44:15;7.45;;;5.25;;
80778;SDS011;70170;47.856;10.956;2023-06-26T04:46:40;12.50;;;5.07;;
80778;SDS011;70170;47.856;10.956;2023-06-26T04:49:08;6.32;;;5.05;;
80778;SDS011;70170;47.856;10.956;2023-06-26T04:51:34;5.22;;;4.72;;
80778;SDS011;70170;47.856;10.956;2023-06-26T04:54:05;7.53;;;5.00;;
80778;SDS011;70170;47.856;10.956;2023-06-26T04:56:31;6.10;;;4.95;;
80778;SDS011;70170;47.856;10.956;2023-06-26T04:58:57;8.40;;;5.28;;
80778;SDS011;70170;47.856;10.956;2023-06-26T05:01:22;5.75;;;4.68;;
80778;SDS011;70170;47.856;10.956;2023-06-26T05:03:47;15.55;;;5.05;;
80778;SDS011;70170;47.856;10.956;2023-06-26T05:06:14;8.00;;;5.25;;
80778;SDS011;70170;47.856;10.956;2023-06-26T05:08:39;9.27;;;4.75;;
80778;SDS011;70170;47.856;10.956;2023-06-26T05:11:04;7.07;;;5.50;;
80778;SDS011;70170;47.856;10.956;2023-06-26T05:13:29;7.00;;;4.68;;
80778;SDS011;70170;47.856;10.956;2023-06-26T05:15:55;5.45;;;4.82;;
80778;SDS011;70170;47.856;10.956;2023-06-26T05:18:20;6.45;;;4.75;;
80778;SDS011;70170;47.856;10.956;2023-06-26T05:20:45;5.68;;;4.75;;
80778;SDS011;70170;47.856;10.956;2023-06-26T05:23:11;8.95;;;4.88;;
80778;SDS011;70170;47.856;10.956;2023-06-26T05:25:37;5.93;;;4.60;;
80778;SDS011;70170;47.856;10.956;2023-06-26T05:28:03;10.57;;;5.03;;
80778;SDS011;70170;47.856;10.956;2023-06-26T05:30:30;8.23;;;4.80;;
80778;SDS011;70170;47.856;10.956;2023-06-26T05:32:56;6.25;;;4.78;;
80778;SDS011;70170;47.856;10.956;2023-06-26T05:35:24;5.90;;;4.93;;
80778;SDS011;70170;47.856;10.956;2023-06-26T05:37:53;8.60;;;5.10;;
80778;SDS011;70170;47.856;10.956;2023-06-26T05:40:20;6.63;;;5.03;;
80778;SDS011;70170;47.856;10.956;2023-06-26T05:42:45;6.22;;;4.68;;
80778;SDS011;70170;47.856;10.956;2023-06-26T05:45:11;7.43;;;4.88;;
80778;SDS011;70170;47.856;10.956;2023-06-26T05:47:36;7.38;;;5.13;;
80778;SDS011;70170;47.856;10.956;2023-06-26T05:50:02;5.95;;;4.97;;
80778;SDS011;70170;47.856;10.956;2023-06-26T05:52:28;10.43;;;5.00;;
80778;SDS011;70170;47.856;10.956;2023-06-26T05:54:54;6.90;;;5.20;;
80778;SDS011;70170;47.856;10.956;2023-06-26T05:57:23;5.30;;;4.55;;
80778;SDS011;70170;47.856;10.956;2023-06-26T05:59:49;9.73;;;4.63;;
80778;SDS011;70170;47.856;10.956;2023-06-26T06:02:14;6.13;;;5.30;;
80778;SDS011;70170;47.856;10.956;2023-06-26T06:04:39;10.00;;;4.50;;
80778;SDS011;70170;47.856;10.956;2023-06-26T06:07:05;5.65;;;5.05;;
80778;SDS011;70170;47.856;10.956;2023-06-26T06:09:30;4.97;;;4.50;;
80778;SDS011;70170;47.856;10.956;2023-06-26T06:11:55;6.75;;;5.40;;
80778;SDS011;70170;47.856;10.956;2023-06-26T06:14:21;7.03;;;5.15;;
80778;SDS011;70170;47.856;10.956;2023-06-26T06:16:46;9.52;;;5.00;;
80778;SDS011;70170;47.856;10.956;2023-06-26T06:19:11;5.40;;;4.90;;
80778;SDS011;70170;47.856;10.956;2023-06-26T06:21:38;6.35;;;5.28;;
80778;SDS011;70170;47.856;10.956;2023-06-26T06:24:03;6.22;;;4.60;;
80778;SDS011;70170;47.856;10.956;2023-06-26T06:26:29;5.82;;;5.22;;
80778;SDS011;70170;47.856;10.956;2023-06-26T06:28:54;7.45;;;4.90;;
80778;SDS011;70170;47.856;10.956;2023-06-26T06:31:20;5.93;;;4.65;;
80778;SDS011;70170;47.856;10.956;2023-06-26T06:33:45;6.10;;;4.97;;
80778;SDS011;70170;47.856;10.956;2023-06-26T06:36:10;7.45;;;4.78;;
80778;SDS011;70170;47.856;10.956;2023-06-26T06:38:36;15.45;;;5.25;;
80778;SDS011;70170;47.856;10.956;2023-06-26T06:41:01;10.23;;;5.20;;
80778;SDS011;70170;47.856;10.956;2023-06-26T06:43:26;6.80;;;4.90;;
80778;SDS011;70170;47.856;10.956;2023-06-26T06:45:52;4.78;;;4.35;;
80778;SDS011;70170;47.856;10.956;2023-06-26T06:48:17;7.20;;;5.03;;
80778;SDS011;70170;47.856;10.956;2023-06-26T06:50:42;5.60;;;5.00;;
80778;SDS011;70170;47.856;10.956;2023-06-26T06:53:08;7.10;;;5.10;;
80778;SDS011;70170;47.856;10.956;2023-06-26T06:55:33;6.53;;;4.95;;
80778;SDS011;70170;47.856;10.956;2023-06-26T06:57:58;5.25;;;4.72;;
80778;SDS011;70170;47.856;10.956;2023-06-26T07:00:23;6.13;;;4.68;;
80778;SDS011;70170;47.856;10.956;2023-06-26T07:02:49;5.72;;;5.03;;
80778;SDS011;70170;47.856;10.956;2023-06-26T07:05:16;6.03;;;4.50;;
80778;SDS011;70170;47.856;10.956;2023-06-26T07:07:41;7.40;;;4.47;;
80778;SDS011;70170;47.856;10.956;2023-06-26T07:10:07;5.50;;;4.53;;
80778;SDS011;70170;47.856;10.956;2023-06-26T07:12:35;5.43;;;4.35;;
80778;SDS011;70170;47.856;10.956;2023-06-26T07:15:01;17.83;;;4.70;;
80778;SDS011;70170;47.856;10.956;2023-06-26T07:17:27;4.93;;;4.10;;
80778;SDS011;70170;47.856;10.956;2023-06-26T07:19:53;4.95;;;4.47;;
80778;SDS011;70170;47.856;10.956;2023-06-26T07:22:18;5.80;;;4.20;;
80778;SDS011;70170;47.856;10.956;2023-06-26T07:24:47;5.53;;;4.32;;
80778;SDS011;70170;47.856;10.956;2023-06-26T07:27:15;13.02;;;4.40;;
80778;SDS011;70170;47.856;10.956;2023-06-26T07:29:41;5.13;;;4.03;;
80778;SDS011;70170;47.856;10.956;2023-06-26T07:32:07;5.07;;;4.57;;
80778;SDS011;70170;47.856;10.956;2023-06-26T07:34:33;6.10;;;4.40;;
80778;SDS011;70170;47.856;10.956;2023-06-26T07:36:58;6.22;;;4.20;;
80778;SDS011;70170;47.856;10.956;2023-06-26T07:39:24;6.80;;;4.28;;
80778;SDS011;70170;47.856;10.956;2023-06-26T07:41:49;4.85;;;4.05;;
80778;SDS011;70170;47.856;10.956;2023-06-26T07:44:14;4.72;;;4.25;;
80778;SDS011;70170;47.856;10.956;2023-06-26T07:46:40;14.63;;;4.68;;
80778;SDS011;70170;47.856;10.956;2023-06-26T07:49:05;6.55;;;4.50;;
80778;SDS011;70170;47.856;10.956;2023-06-26T07:51:31;11.35;;;4.72;;
80778;SDS011;70170;47.856;10.956;2023-06-26T07:53:59;4.88;;;4.38;;
80778;SDS011;70170;47.856;10.956;2023-06-26T07:56:25;6.22;;;4.93;;
80778;SDS011;70170;47.856;10.956;2023-06-26T07:58:50;4.47;;;4.07;;
80778;SDS011;70170;47.856;10.956;2023-06-26T08:01:15;4.65;;;4.20;;
80778;SDS011;70170;47.856;10.956;2023-06-26T08:03:41;6.65;;;4.22;;
80778;SDS011;70170;47.856;10.956;2023-06-26T08:06:07;5.68;;;4.30;;
80778;SDS011;70170;47.856;10.956;2023-06-26T08:08:32;6.78;;;4.53;;
80778;SDS011;70170;47.856;10.956;2023-06-26T08:10:58;5.50;;;4.10;;
80778;SDS011;70170;47.856;10.956;2023-06-26T08:13:23;5.55;;;4.43;;
80778;SDS011;70170;47.856;10.956;2023-06-26T08:15:50;6.38;;;4.07;;
80778;SDS011;70170;47.856;10.956;2023-06-26T08:18:15;4.88;;;4.30;;
80778;SDS011;70170;47.856;10.956;2023-06-26T08:20:40;7.85;;;3.90;;
80778;SDS011;70170;47.856;10.956;2023-06-26T08:23:08;10.82;;;4.63;;
80778;SDS011;70170;47.856;10.956;2023-06-26T08:25:33;4.82;;;4.35;;
80778;SDS011;70170;47.856;10.956;2023-06-26T08:27:59;4.75;;;4.07;;
80778;SDS011;70170;47.856;10.956;2023-06-26T08:30:24;7.18;;;4.53;;
80778;SDS011;70170;47.856;10.956;2023-06-26T08:32:52;5.15;;;4.43;;
80778;SDS011;70170;47.856;10.956;2023-06-26T08:35:19;8.05;;;4.40;;
80778;SDS011;70170;47.856;10.956;2023-06-26T08:37:44;4.70;;;4.15;;
80778;SDS011;70170;47.856;10.956;2023-06-26T08:40:09;4.60;;;4.20;;
80778;SDS011;70170;47.856;10.956;2023-06-26T08:42:35;4.90;;;4.40;;
80778;SDS011;70170;47.856;10.956;2023-06-26T08:45:00;6.50;;;4.15;;
80778;SDS011;70170;47.856;10.956;2023-06-26T08:47:26;8.88;;;4.10;;
80778;SDS011;70170;47.856;10.956;2023-06-26T08:49:55;4.30;;;3.90;;
80778;SDS011;70170;47.856;10.956;2023-06-26T08:52:43;5.32;;;4.47;;
80778;SDS011;70170;47.856;10.956;2023-06-26T08:55:10;11.90;;;4.25;;
80778;SDS011;70170;47.856;10.956;2023-06-26T08:57:40;8.07;;;4.15;;
80778;SDS011;70170;47.856;10.956;2023-06-26T09:00:05;5.90;;;3.90;;
80778;SDS011;70170;47.856;10.956;2023-06-26T09:02:33;7.22;;;4.05;;
80778;SDS011;70170;47.856;10.956;2023-06-26T09:04:59;4.53;;;4.13;;
80778;SDS011;70170;47.856;10.956;2023-06-26T09:07:24;4.50;;;4.10;;
80778;SDS011;70170;47.856;10.956;2023-06-26T09:09:49;6.03;;;3.85;;
80778;SDS011;70170;47.856;10.956;2023-06-26T09:12:15;4.05;;;3.47;;
80778;SDS011;70170;47.856;10.956;2023-06-26T09:14:41;4.65;;;3.63;;
80778;SDS011;70170;47.856;10.956;2023-06-26T09:17:06;6.28;;;3.75;;
80778;SDS011;70170;47.856;10.956;2023-06-26T09:19:32;9.10;;;3.90;;
80778;SDS011;70170;47.856;10.956;2023-06-26T09:21:57;4.40;;;3.60;;
80778;SDS011;70170;47.856;10.956;2023-06-26T09:24:22;5.15;;;3.88;;
80778;SDS011;70170;47.856;10.956;2023-06-26T09:26:48;3.97;;;3.50;;
80778;SDS011;70170;47.856;10.956;2023-06-26T09:29:14;5.93;;;3.53;;
80778;SDS011;70170;47.856;10.956;2023-06-26T09:31:40;4.20;;;3.80;;
80778;SDS011;70170;47.856;10.956;2023-06-26T09:34:06;4.82;;;3.45;;
80778;SDS011;70170;47.856;10.956;2023-06-26T09:36:31;4.45;;;3.67;;
80778;SDS011;70170;47.856;10.956;2023-06-26T09:39:04;5.90;;;3.88;;
80778;SDS011;70170;47.856;10.956;2023-06-26T09:41:37;5.05;;;3.80;;
80778;SDS011;70170;47.856;10.956;2023-06-26T09:44:03;8.57;;;3.60;;
80778;SDS011;70170;47.856;10.956;2023-06-26T09:46:30;4.40;;;4.00;;
80778;SDS011;70170;47.856;10.956;2023-06-26T09:49:06;5.88;;;3.92;;
80778;SDS011;70170;47.856;10.956;2023-06-26T09:51:34;14.48;;;4.10;;
80778;SDS011;70170;47.856;10.956;2023-06-26T09:54:01;7.35;;;4.00;;
80778;SDS011;70170;47.856;10.956;2023-06-26T09:56:27;3.90;;;3.53;;
80778;SDS011;70170;47.856;10.956;2023-06-26T09:58:55;4.30;;;3.95;;
80778;SDS011;70170;47.856;10.956;2023-06-26T10:01:22;4.05;;;3.65;;
80778;SDS011;70170;47.856;10.956;2023-06-26T10:03:47;4.10;;;3.75;;
80778;SDS011;70170;47.856;10.956;2023-06-26T10:06:12;4.18;;;3.80;;
80778;SDS011;70170;47.856;10.956;2023-06-26T10:08:39;4.45;;;3.90;;
80778;SDS011;70170;47.856;10.956;2023-06-26T10:11:07;4.70;;;4.18;;
80778;SDS011;70170;47.856;10.956;2023-06-26T10:13:38;4.65;;;4.15;;
80778;SDS011;70170;47.856;10.956;2023-06-26T10:16:07;4.30;;;3.90;;
80778;SDS011;70170;47.856;10.956;2023-06-26T10:18:33;4.28;;;3.88;;
80778;SDS011;70170;47.856;10.956;2023-06-26T10:21:03;4.28;;;3.88;;
80778;SDS011;70170;47.856;10.956;2023-06-26T10:23:30;3.75;;;3.35;;
80778;SDS011;70170;47.856;10.956;2023-06-26T10:25:57;5.45;;;3.75;;
80778;SDS011;70170;47.856;10.956;2023-06-26T10:28:24;4.20;;;3.75;;
80778;SDS011;70170;47.856;10.956;2023-06-26T10:30:51;4.10;;;3.80;;
80778;SDS011;70170;47.856;10.956;2023-06-26T10:33:18;4.30;;;3.90;;
80778;SDS011;70170;47.856;10.956;2023-06-26T10:35:45;6.15;;;3.85;;
80778;SDS011;70170;47.856;10.956;2023-06-26T10:38:10;3.83;;;3.40;;
80778;SDS011;70170;47.856;10.956;2023-06-26T10:40:42;4.53;;;4.10;;
80778;SDS011;70170;47.856;10.956;2023-06-26T10:43:10;4.75;;;4.18;;
80778;SDS011;70170;47.856;10.956;2023-06-26T10:45:37;4.80;;;4.10;;
80778;SDS011;70170;47.856;10.956;2023-06-26T10:48:09;14.00;;;4.47;;
80778;SDS011;70170;47.856;10.956;2023-06-26T10:50:34;4.75;;;3.60;;
80778;SDS011;70170;47.856;10.956;2023-06-26T10:58:32;8.02;;;3.70;;
80778;SDS011;70170;47.856;10.956;2023-06-26T11:06:30;7.03;;;4.00;;
80778;SDS011;70170;47.856;10.956;2023-06-26T11:09:00;4.50;;;4.10;;
80778;SDS011;70170;47.856;10.956;2023-06-26T11:14:27;7.28;;;4.20;;
80778;SDS011;70170;47.856;10.956;2023-06-26T11:16:54;4.10;;;3.80;;
80778;SDS011;70170;47.856;10.956;2023-06-26T11:19:20;7.00;;;4.28;;
80778;SDS011;70170;47.856;10.956;2023-06-26T11:21:46;4.70;;;4.30;;
80778;SDS011;70170;47.856;10.956;2023-06-26T11:24:12;9.50;;;4.68;;
80778;SDS011;70170;47.856;10.956;2023-06-26T11:26:41;5.65;;;4.18;;
80778;SDS011;70170;47.856;10.956;2023-06-26T11:29:08;4.65;;;4.25;;
80778;SDS011;70170;47.856;10.956;2023-06-26T11:31:34;7.78;;;4.40;;
80778;SDS011;70170;47.856;10.956;2023-06-26T11:34:02;11.57;;;4.30;;
80778;SDS011;70170;47.856;10.956;2023-06-26T11:36:29;5.88;;;4.35;;
80778;SDS011;70170;47.856;10.956;2023-06-26T11:38:56;8.35;;;4.78;;
80778;SDS011;70170;47.856;10.956;2023-06-26T11:41:29;6.40;;;4.38;;
80778;SDS011;70170;47.856;10.956;2023-06-26T11:44:00;5.97;;;4.53;;
80778;SDS011;70170;47.856;10.956;2023-06-26T11:46:31;7.50;;;4.07;;
80778;SDS011;70170;47.856;10.956;2023-06-26T11:48:59;6.07;;;4.07;;
80778;SDS011;70170;47.856;10.956;2023-06-26T11:51:27;6.07;;;4.55;;
80778;SDS011;70170;47.856;10.956;2023-06-26T11:53:53;7.75;;;5.10;;
80778;SDS011;70170;47.856;10.956;2023-06-26T11:56:18;4.90;;;4.00;;
80778;SDS011;70170;47.856;10.956;2023-06-26T11:59:11;8.45;;;5.25;;
80778;SDS011;70170;47.856;10.956;2023-06-26T12:01:38;5.20;;;4.70;;
80778;SDS011;70170;47.856;10.956;2023-06-26T12:04:06;6.90;;;4.72;;
80778;SDS011;70170;47.856;10.956;2023-06-26T12:06:33;5.70;;;4.90;;
80778;SDS011;70170;47.856;10.956;2023-06-26T12:09:00;5.03;;;4.40;;
80778;SDS011;70170;47.856;10.956;2023-06-26T12:11:28;4.95;;;4.47;;
80778;SDS011;70170;47.856;10.956;2023-06-26T12:13:54;9.93;;;5.00;;
80778;SDS011;70170;47.856;10.956;2023-06-26T12:16:20;6.65;;;4.38;;
80778;SDS011;70170;47.856;10.956;2023-06-26T12:18:46;5.50;;;5.00;;
80778;SDS011;70170;47.856;10.956;2023-06-26T12:24:12;5.03;;;4.53;;
80778;SDS011;70170;47.856;10.956;2023-06-26T12:26:40;6.82;;;5.32;;
80778;SDS011;70170;47.856;10.956;2023-06-26T12:29:09;5.05;;;4.50;;
80778;SDS011;70170;47.856;10.956;2023-06-26T12:31:42;6.55;;;4.70;;
80778;SDS011;70170;47.856;10.956;2023-06-26T12:34:12;5.57;;;5.10;;
80778;SDS011;70170;47.856;10.956;2023-06-26T12:36:42;5.60;;;5.07;;
80778;SDS011;70170;47.856;10.956;2023-06-26T12:39:11;6.30;;;4.45;;
80778;SDS011;70170;47.856;10.956;2023-06-26T12:41:52;5.53;;;5.03;;
80778;SDS011;70170;47.856;10.956;2023-06-26T12:46:45;5.60;;;5.05;;
80778;SDS011;70170;47.856;10.956;2023-06-26T12:49:12;5.05;;;4.35;;
80778;SDS011;70170;47.856;10.956;2023-06-26T12:51:37;5.70;;;4.80;;
80778;SDS011;70170;47.856;10.956;2023-06-26T12:54:03;5.70;;;4.40;;
80778;SDS011;70170;47.856;10.956;2023-06-26T12:56:28;6.47;;;4.88;;
80778;SDS011;70170;47.856;10.956;2023-06-26T12:58:53;7.75;;;4.82;;
80778;SDS011;70170;47.856;10.956;2023-06-26T13:01:18;5.70;;;4.78;;
80778;SDS011;70170;47.856;10.956;2023-06-26T13:03:44;7.43;;;4.43;;
80778;SDS011;70170;47.856;10.956;2023-06-26T13:06:10;9.68;;;4.95;;
80778;SDS011;70170;47.856;10.956;2023-06-26T13:08:35;5.85;;;5.28;;
80778;SDS011;70170;47.856;10.956;2023-06-26T13:11:02;6.72;;;4.72;;
80778;SDS011;70170;47.856;10.956;2023-06-26T13:13:27;5.50;;;5.00;;
80778;SDS011;70170;47.856;10.956;2023-06-26T13:15:52;6.50;;;4.50;;
80778;SDS011;70170;47.856;10.956;2023-06-26T13:18:18;5.70;;;4.80;;
80778;SDS011;70170;47.856;10.956;2023-06-26T13:20:43;5.50;;;5.00;;
80778;SDS011;70170;47.856;10.956;2023-06-26T13:23:08;10.25;;;5.68;;
80778;SDS011;70170;47.856;10.956;2023-06-26T13:25:33;10.32;;;4.60;;
80778;SDS011;70170;47.856;10.956;2023-06-26T13:27:59;11.50;;;5.05;;
80778;SDS011;70170;47.856;10.956;2023-06-26T13:30:24;8.02;;;5.07;;
80778;SDS011;70170;47.856;10.956;2023-06-26T13:32:50;4.90;;;4.40;;
80778;SDS011;70170;47.856;10.956;2023-06-26T13:35:15;6.55;;;4.72;;
80778;SDS011;70170;47.856;10.956;2023-06-26T13:37:41;5.30;;;4.82;;
80778;SDS011;70170;47.856;10.956;2023-06-26T13:40:07;5.72;;;5.15;;
80778;SDS011;70170;47.856;10.956;2023-06-26T13:42:34;7.63;;;5.30;;
80778;SDS011;70170;47.856;10.956;2023-06-26T13:45:01;5.88;;;4.93;;
80778;SDS011;70170;47.856;10.956;2023-06-26T13:47:26;4.90;;;4.45;;
80778;SDS011;70170;47.856;10.956;2023-06-26T13:49:51;5.55;;;4.40;;
80778;SDS011;70170;47.856;10.956;2023-06-26T13:52:17;4.90;;;4.50;;
80778;SDS011;70170;47.856;10.956;2023-06-26T13:54:42;7.63;;;4.65;;
80778;SDS011;70170;47.856;10.956;2023-06-26T13:57:08;6.43;;;4.72;;
80778;SDS011;70170;47.856;10.956;2023-06-26T13:59:33;5.38;;;4.88;;
80778;SDS011;70170;47.856;10.956;2023-06-26T14:02:01;5.60;;;4.63;;
80778;SDS011;70170;47.856;10.956;2023-06-26T14:04:27;6.53;;;4.57;;
80778;SDS011;70170;47.856;10.956;2023-06-26T14:06:52;7.57;;;4.72;;
80778;SDS011;70170;47.856;10.956;2023-06-26T14:09:17;5.97;;;5.00;;
80778;SDS011;70170;47.856;10.956;2023-06-26T14:11:43;5.35;;;4.85;;
80778;SDS011;70170;47.856;10.956;2023-06-26T14:14:09;5.63;;;4.80;;
80778;SDS011;70170;47.856;10.956;2023-06-26T14:16:34;5.50;;;4.90;;
80778;SDS011;70170;47.856;10.956;2023-06-26T14:18:59;4.82;;;4.32;;
80778;SDS011;70170;47.856;10.956;2023-06-26T14:21:25;5.65;;;4.55;;
80778;SDS011;70170;47.856;10.956;2023-06-26T14:23:51;9.48;;;4.85;;
80778;SDS011;70170;47.856;10.956;2023-06-26T14:26:17;7.30;;;5.30;;
80778;SDS011;70170;47.856;10.956;2023-06-26T14:28:42;5.03;;;4.53;;
80778;SDS011;70170;47.856;10.956;2023-06-26T14:31:07;5.18;;;4.50;;
80778;SDS011;70170;47.856;10.956;2023-06-26T14:33:32;5.82;;;4.65;;
80778;SDS011;70170;47.856;10.956;2023-06-26T14:35:58;6.38;;;4.70;;
80778;SDS011;70170;47.856;10.956;2023-06-26T14:38:23;7.22;;;5.18;;
80778;SDS011;70170;47.856;10.956;2023-06-26T14:40:48;6.60;;;5.18;;
80778;SDS011;70170;47.856;10.956;2023-06-26T14:43:13;7.70;;;4.93;;
80778;SDS011;70170;47.856;10.956;2023-06-26T14:45:39;5.30;;;4.78;;
80778;SDS011;70170;47.856;10.956;2023-06-26T14:48:04;5.20;;;4.70;;